Time;durP1;ratioP1;P1;durP2;ratioP2;P2;SDS_P1;SDS_P2;PMS_P1;PMS_P2;Temp;Humidity;BMP_temperature;BMP_pressure;BME280_temperature;BME280_humidity;BME280_pressure;Samples;Min_cycle;Max_cycle;Signal;HPM_P1;HPM_P2
2024/04/25 00:00:51;;;;;;;2.77;2.57;;;6.50;38.00;;;;;;11123384;26;20958;-71
2024/04/25 00:05:57;;;;;;;2.67;2.10;;;6.50;37.60;;;;;;11134913;26;20335;-71
2024/04/25 00:11:05;;;;;;;2.57;2.37;;;6.50;37.60;;;;;;11138966;26;20259;-71
2024/04/25 00:16:10;;;;;;;2.50;2.30;;;6.60;38.10;;;;;;11140120;26;20291;-71
2024/04/25 00:21:15;;;;;;;2.70;2.50;;;6.60;37.60;;;;;;11142848;26;20371;-71
2024/04/25 00:26:23;;;;;;;2.13;2.03;;;6.60;37.40;;;;;;11142107;26;20260;-71
2024/04/25 00:31:28;;;;;;;2.57;2.10;;;6.70;38.10;;;;;;11141846;26;20398;-71
2024/04/25 00:36:33;;;;;;;3.97;2.20;;;6.70;37.20;;;;;;11143469;26;20297;-71
2024/04/25 00:41:41;;;;;;;2.50;2.30;;;6.70;37.20;;;;;;11142009;26;20270;-71
2024/04/25 00:46:47;;;;;;;2.20;2.10;;;6.70;38.00;;;;;;11140784;26;20339;-71
2024/04/25 00:51:53;;;;;;;2.20;2.10;;;6.70;37.40;;;;;;11136146;26;20366;-71
2024/04/25 00:57:02;;;;;;;2.50;2.30;;;6.70;37.30;;;;;;11135717;26;20254;-72
2024/04/25 01:02:09;;;;;;;2.20;2.10;;;6.60;38.00;;;;;;11150073;26;20312;-71
2024/04/25 01:07:15;;;;;;;2.23;2.03;;;6.60;37.40;;;;;;11147870;26;20259;-71
2024/04/25 01:12:22;;;;;;;1.93;1.83;;;6.60;37.40;;;;;;11124906;26;20260;-72
2024/04/25 01:17:27;;;;;;;2.30;2.10;;;6.50;38.00;;;;;;11145493;26;20310;-71
2024/04/25 01:22:38;;;;;;;1.93;1.83;;;6.50;37.60;;;;;;11136053;26;21245;-71
2024/04/25 01:27:47;;;;;;;2.20;2.10;;;6.50;38.00;;;;;;11139064;26;20570;-71
2024/04/25 01:32:52;;;;;;;2.20;2.10;;;6.50;38.00;;;;;;11133688;26;20262;-71
2024/04/25 01:37:59;;;;;;;2.87;2.23;;;6.50;37.60;;;;;;11121117;26;20409;-72
2024/04/25 01:43:08;;;;;;;2.30;2.10;;;6.60;37.70;;;;;;11124900;26;20257;-71
2024/04/25 01:48:12;;;;;;;2.50;2.30;;;6.60;38.10;;;;;;11136917;26;20285;-72
2024/04/25 01:53:18;;;;;;;2.40;2.20;;;6.60;37.50;;;;;;11129761;26;21073;-71
2024/04/25 01:58:25;;;;;;;2.27;2.07;;;6.60;37.40;;;;;;11129522;26;20346;-71
2024/04/25 02:03:30;;;;;;;2.37;2.23;;;6.60;38.10;;;;;;11127373;26;20259;-71
2024/04/25 02:08:35;;;;;;;2.60;2.40;;;6.50;37.80;;;;;;11114112;26;20661;-72
2024/04/25 02:13:43;;;;;;;2.40;2.20;;;6.40;37.90;;;;;;11137654;26;20263;-71
2024/04/25 02:18:48;;;;;;;2.37;2.17;;;6.40;37.90;;;;;;11143726;26;20259;-71
2024/04/25 02:29:17;;;;;;;2.67;2.47;;;6.50;38.00;;;;;;11140582;26;20259;-71
2024/04/25 02:34:22;;;;;;;2.40;2.20;;;6.50;38.00;;;;;;11137995;26;20285;-71
2024/04/25 02:39:27;;;;;;;2.80;2.60;;;6.50;38.00;;;;;;11140603;26;20810;-71
2024/04/25 02:44:35;;;;;;;2.63;2.43;;;6.60;38.10;;;;;;11134998;26;20290;-71
2024/04/25 02:49:39;;;;;;;3.47;3.27;;;6.60;38.10;;;;;;11147869;26;20247;-71
2024/04/25 02:54:44;;;;;;;3.70;3.40;;;6.60;38.10;;;;;;11146372;26;20656;-71
2024/04/25 02:59:52;;;;;;;3.33;3.10;;;6.60;38.10;;;;;;11146471;26;20255;-71
2024/04/25 03:04:57;;;;;;;4.27;3.87;;;6.60;38.10;;;;;;11145555;26;20262;-71
2024/04/25 03:10:02;;;;;;;4.00;3.70;;;6.60;38.10;;;;;;11147600;26;20301;-71
2024/04/25 03:15:10;;;;;;;3.07;2.80;;;6.60;38.10;;;;;;11141352;26;21438;-71
2024/04/25 03:20:15;;;;;;;4.03;2.87;;;6.60;38.10;;;;;;11140390;26;20769;-71
2024/04/25 03:25:20;;;;;;;2.80;2.60;;;6.60;38.10;;;;;;11135890;26;20327;-71
2024/04/25 03:30:28;;;;;;;2.40;2.20;;;6.60;38.10;;;;;;11143725;26;20679;-71
2024/04/25 03:35:33;;;;;;;2.40;2.20;;;6.60;38.10;;;;;;11148139;26;20317;-70
2024/04/25 03:40:38;;;;;;;2.63;2.50;;;6.60;38.10;;;;;;11120234;26;20375;-71
2024/04/25 03:45:46;;;;;;;2.43;2.23;;;6.60;38.10;;;;;;11097925;26;20723;-71
2024/04/25 03:50:51;;;;;;;2.73;2.50;;;6.60;38.10;;;;;;11129892;26;20303;-70
2024/04/25 03:55:56;;;;;;;2.93;2.57;;;6.60;38.10;;;;;;11144183;26;20745;-71
2024/04/25 04:01:04;;;;;;;2.60;2.40;;;6.70;38.10;;;;;;11130983;26;20301;-71
2024/04/25 04:06:09;;;;;;;3.33;3.03;;;6.70;38.60;;;;;;11131777;26;20258;-71
2024/04/25 04:11:14;;;;;;;2.53;2.33;;;6.70;38.20;;;;;;11138589;26;20255;-71
2024/04/25 04:16:21;;;;;;;2.73;2.50;;;6.80;38.20;;;;;;11138153;26;20317;-71
2024/04/25 04:21:27;;;;;;;2.57;2.37;;;6.80;38.30;;;;;;11143657;26;21162;-71
2024/04/25 04:26:32;;;;;;;2.77;2.57;;;6.80;38.20;;;;;;11140582;26;21535;-71
2024/04/25 04:31:40;;;;;;;2.77;2.57;;;6.90;38.30;;;;;;11138321;26;20266;-71
2024/04/25 04:36:45;;;;;;;2.80;2.50;;;6.90;38.60;;;;;;11141124;26;20894;-71
2024/04/25 04:41:50;;;;;;;2.90;2.60;;;6.90;39.00;;;;;;11142311;26;20260;-72
2024/04/25 04:46:57;;;;;;;2.87;2.67;;;6.90;38.30;;;;;;11142236;26;20305;-72
2024/04/25 04:52:02;;;;;;;2.77;2.40;;;6.90;38.30;;;;;;11148563;26;20270;-71
2024/04/25 04:57:07;;;;;;;2.87;2.67;;;6.90;38.30;;;;;;11131990;26;20258;-71
2024/04/25 05:02:15;;;;;;;3.03;2.60;;;6.90;38.30;;;;;;11134888;26;20255;-71
2024/04/25 05:07:20;;;;;;;3.83;2.93;;;6.90;38.30;;;;;;11141654;26;20266;-71
2024/04/25 05:12:25;;;;;;;3.30;3.00;;;6.90;38.30;;;;;;11152086;26;20263;-71
2024/04/25 05:17:35;;;;;;;3.17;2.90;;;6.90;38.30;;;;;;11134395;26;20299;-70
2024/04/25 05:22:43;;;;;;;2.90;2.70;;;7.00;38.70;;;;;;11156135;26;20825;-71
2024/04/25 05:27:48;;;;;;;3.63;2.83;;;7.00;38.40;;;;;;11162239;26;20297;-71
2024/04/25 05:32:56;;;;;;;3.50;2.73;;;7.10;38.50;;;;;;11162184;26;20587;-71
2024/04/25 05:38:02;;;;;;;2.83;2.60;;;7.10;38.70;;;;;;11165889;26;20364;-71
2024/04/25 05:43:07;;;;;;;2.70;2.50;;;7.10;38.50;;;;;;11155341;26;20293;-71
2024/04/25 05:48:20;;;;;;;2.90;2.70;;;7.20;38.60;;;;;;11162314;26;20277;-71
2024/04/25 05:53:26;;;;;;;2.83;2.63;;;7.30;39.00;;;;;;11156068;26;20262;-71
2024/04/25 05:58:31;;;;;;;2.77;2.57;;;7.30;38.60;;;;;;11169861;26;20258;-71
2024/04/25 06:03:38;;;;;;;2.93;2.73;;;7.30;38.60;;;;;;11157375;26;20302;-70
2024/04/25 06:08:43;;;;;;;3.13;2.93;;;7.40;39.10;;;;;;11165562;26;20299;-71
2024/04/25 06:13:49;;;;;;;3.00;2.70;;;7.40;38.70;;;;;;11155420;26;20301;-71
2024/04/25 06:18:57;;;;;;;4.13;3.10;;;7.50;38.80;;;;;;11158417;26;20262;-70
2024/04/25 06:24:02;;;;;;;3.40;3.10;;;7.60;38.90;;;;;;11162180;26;20299;-71
2024/04/25 06:29:07;;;;;;;3.27;2.97;;;7.70;39.00;;;;;;11158161;26;20310;-71
2024/04/25 06:34:15;;;;;;;3.27;3.07;;;7.80;38.80;;;;;;11158983;26;20258;-71
2024/04/25 06:39:20;;;;;;;3.53;3.23;;;7.90;39.10;;;;;;11162991;26;20592;-71
2024/04/25 06:44:24;;;;;;;2.93;2.73;;;7.90;38.60;;;;;;11167609;26;20254;-71
2024/04/25 06:49:40;;;;;;;3.03;2.80;;;8.00;38.60;;;;;;11158087;26;20258;-71
2024/04/25 06:54:45;;;;;;;3.43;3.10;;;8.00;39.00;;;;;;11148070;26;20260;-71
2024/04/25 06:59:52;;;;;;;3.57;3.27;;;8.20;38.70;;;;;;11163535;26;20271;-71
2024/04/25 07:05:02;;;;;;;4.17;3.33;;;8.20;38.50;;;;;;11154875;26;20302;-71
2024/04/25 07:10:07;;;;;;;4.20;3.70;;;8.30;38.70;;;;;;11130661;26;21113;-71
2024/04/25 07:15:13;;;;;;;3.33;3.03;;;8.30;38.50;;;;;;11155500;26;20258;-71
2024/04/25 07:20:21;;;;;;;3.50;3.20;;;8.30;38.70;;;;;;11137044;26;20305;-71
2024/04/25 07:25:26;;;;;;;4.17;2.97;;;8.30;39.00;;;;;;11151934;26;20258;-71
2024/04/25 07:30:31;;;;;;;3.43;3.13;;;8.40;38.90;;;;;;11163980;26;20300;-71
2024/04/25 07:35:39;;;;;;;4.97;3.10;;;8.60;38.70;;;;;;11145597;26;20258;-70
2024/04/25 07:40:44;;;;;;;4.73;3.27;;;8.70;38.40;;;;;;11158438;26;20261;-71
2024/04/25 07:45:49;;;;;;;3.40;3.10;;;8.70;38.30;;;;;;11150303;26;20313;-71
2024/04/25 07:50:56;;;;;;;4.27;3.47;;;8.70;38.30;;;;;;11158932;26;20955;-71
2024/04/25 07:56:01;;;;;;;3.07;2.87;;;8.80;38.50;;;;;;11159260;26;20266;-71
2024/04/25 08:01:07;;;;;;;2.83;2.63;;;8.70;37.90;;;;;;11146553;26;20258;-71
2024/04/25 08:06:15;;;;;;;2.77;2.57;;;8.60;37.70;;;;;;11162523;26;20866;-71
2024/04/25 08:11:20;;;;;;;2.80;2.60;;;8.40;38.60;;;;;;11155329;26;20301;-71
2024/04/25 08:16:25;;;;;;;2.77;2.40;;;8.30;38.50;;;;;;11158344;26;20346;-71
2024/04/25 08:21:33;;;;;;;3.40;3.00;;;8.30;39.00;;;;;;11161826;26;20258;-71
2024/04/25 08:26:38;;;;;;;3.33;3.10;;;8.40;39.50;;;;;;11157886;26;20780;-70
2024/04/25 08:31:44;;;;;;;3.13;2.83;;;8.40;39.50;;;;;;11150013;26;20259;-71
2024/04/25 08:36:52;;;;;;;4.30;3.20;;;8.50;39.60;;;;;;11152404;26;20316;-71
2024/04/25 08:41:58;;;;;;;3.43;3.13;;;8.50;39.60;;;;;;11168929;26;20301;-71
2024/04/25 08:47:03;;;;;;;3.53;3.20;;;8.60;39.70;;;;;;11165107;26;20310;-70
2024/04/25 08:52:11;;;;;;;4.90;3.43;;;8.70;39.80;;;;;;11160058;26;20295;-71
2024/04/25 08:57:16;;;;;;;3.57;3.27;;;8.90;40.00;;;;;;11159087;26;20306;-70
2024/04/25 09:02:22;;;;;;;3.83;3.13;;;9.10;40.10;;;;;;11155209;26;20261;-70
2024/04/25 09:07:30;;;;;;;3.30;3.00;;;9.30;40.00;;;;;;11152413;26;20709;-70
2024/04/25 09:12:35;;;;;;;3.03;2.80;;;9.50;39.40;;;;;;11155391;26;20399;-70
2024/04/25 09:17:40;;;;;;;3.20;2.90;;;9.70;38.70;;;;;;11157560;26;20392;-70
2024/04/25 09:22:50;;;;;;;5.37;2.90;;;9.70;38.90;;;;;;11155306;26;20268;-70
2024/04/25 09:27:56;;;;;;;4.53;3.10;;;9.90;38.60;;;;;;11149801;26;20821;-70
2024/04/25 09:33:04;;;;;;;3.53;3.23;;;10.00;37.60;;;;;;11167314;26;20396;-70
2024/04/25 09:38:12;;;;;;;3.60;3.30;;;10.00;37.30;;;;;;11151164;26;20294;-71
2024/04/25 09:43:19;;;;;;;3.07;2.87;;;10.00;36.60;;;;;;11165885;26;20887;-70
2024/04/25 09:48:25;;;;;;;3.47;3.17;;;9.90;38.00;;;;;;11166324;26;20741;-71
2024/04/25 09:53:41;;;;;;;3.73;2.63;;;9.90;38.20;;;;;;11165169;26;20289;-71
2024/04/25 09:58:53;;;;;;;3.67;3.00;;;10.00;38.30;;;;;;11153327;26;20301;-70
2024/04/25 10:03:59;;;;;;;3.60;3.30;;;10.10;38.60;;;;;;11158258;26;21304;-70
2024/04/25 10:09:08;;;;;;;4.07;3.00;;;10.20;38.10;;;;;;11162547;26;20651;-70
2024/04/25 10:14:12;;;;;;;2.60;2.40;;;10.30;37.90;;;;;;11161772;26;20255;-72
2024/04/25 10:19:17;;;;;;;2.83;2.57;;;10.40;37.00;;;;;;11160963;26;20366;-70
2024/04/25 10:24:26;;;;;;;2.50;2.30;;;10.50;36.40;;;;;;11153255;26;20350;-70
2024/04/25 10:29:33;;;;;;;3.50;2.30;;;10.60;35.50;;;;;;11155431;26;20264;-70
2024/04/25 10:34:38;;;;;;;2.97;2.70;;;10.60;35.90;;;;;;11152275;26;20301;-70
2024/04/25 10:39:48;;;;;;;2.57;2.37;;;10.60;35.40;;;;;;11152952;26;20263;-70
2024/04/25 10:44:56;;;;;;;3.13;2.50;;;10.60;35.00;;;;;;11153260;26;20259;-70
2024/04/25 10:50:02;;;;;;;2.77;2.57;;;10.70;35.30;;;;;;11157839;26;20305;-70
2024/04/25 10:55:09;;;;;;;2.60;2.40;;;10.80;35.70;;;;;;11157637;26;20292;-70
2024/04/25 11:00:15;;;;;;;2.73;2.50;;;11.00;36.50;;;;;;11149886;26;20306;-70
2024/04/25 11:05:22;;;;;;;3.63;2.47;;;11.30;36.10;;;;;;11148204;26;20340;-70
2024/04/25 11:10:30;;;;;;;1.63;1.53;;;11.50;35.30;;;;;;11154059;26;20659;-70
2024/04/25 11:15:37;;;;;;;2.70;2.10;;;11.50;33.30;;;;;;11152661;26;20494;-70
2024/04/25 11:20:43;;;;;;;3.53;3.23;;;11.30;33.80;;;;;;11154919;26;20266;-70
2024/04/25 11:25:51;;;;;;;2.20;2.00;;;11.10;34.10;;;;;;11157047;26;20308;-70
2024/04/25 11:30:56;;;;;;;2.30;2.10;;;10.80;34.40;;;;;;11160263;26;20293;-70
2024/04/25 11:36:05;;;;;;;2.47;1.97;;;10.60;34.70;;;;;;11154299;26;20302;-70
2024/04/25 11:41:13;;;;;;;1.93;1.83;;;10.30;35.00;;;;;;11133780;26;21071;-70
2024/04/25 11:46:17;;;;;;;2.57;2.37;;;10.10;35.50;;;;;;11160067;26;20290;-70
2024/04/25 11:51:23;;;;;;;1.90;1.80;;;10.10;36.70;;;;;;11155897;26;20258;-70
2024/04/25 11:56:32;;;;;;;2.10;1.83;;;10.30;36.90;;;;;;11160669;26;20749;-70
2024/04/25 12:01:37;;;;;;;2.20;2.00;;;10.60;36.30;;;;;;11149756;26;20260;-70
2024/04/25 12:06:42;;;;;;;2.20;2.00;;;11.00;36.10;;;;;;11141972;26;20306;-70
2024/04/25 12:11:52;;;;;;;1.90;1.80;;;11.20;35.50;;;;;;11123149;26;21521;-70
2024/04/25 12:17:02;;;;;;;2.43;2.23;;;11.40;33.60;;;;;;11136610;26;20386;-70
2024/04/25 12:22:07;;;;;;;2.23;2.03;;;11.60;34.90;;;;;;11129793;26;20293;-70
2024/04/25 12:27:14;;;;;;;2.40;2.20;;;11.70;35.10;;;;;;11127444;26;20258;-70
2024/04/25 12:32:19;;;;;;;2.70;2.50;;;11.90;34.10;;;;;;11137914;26;20303;-71
2024/04/25 12:37:24;;;;;;;2.23;2.03;;;12.00;34.30;;;;;;11112363;26;20374;-70
2024/04/25 12:42:32;;;;;;;2.53;1.83;;;12.10;32.90;;;;;;11133209;26;20366;-70
2024/04/25 12:47:37;;;;;;;2.67;2.20;;;12.00;33.10;;;;;;11127237;26;20258;-70
2024/04/25 12:52:42;;;;;;;3.63;2.63;;;11.70;33.00;;;;;;11135271;26;20262;-70
2024/04/25 12:57:54;;;;;;;3.30;2.40;;;11.40;33.30;;;;;;11134931;26;20258;-71
2024/04/25 13:02:59;;;;;;;2.30;2.10;;;11.10;33.90;;;;;;11116601;26;20297;-70
2024/04/25 13:08:05;;;;;;;1.80;1.63;;;10.80;34.20;;;;;;11131152;26;20261;-70
2024/04/25 13:13:16;;;;;;;2.50;1.80;;;10.60;34.30;;;;;;11136380;26;20262;-70
2024/04/25 13:18:21;;;;;;;1.70;1.60;;;10.50;34.70;;;;;;11133502;26;20300;-70
2024/04/25 13:23:26;;;;;;;1.90;1.80;;;10.40;34.70;;;;;;11115711;26;20293;-70
2024/04/25 13:28:34;;;;;;;1.80;1.70;;;10.40;34.70;;;;;;11093623;26;20305;-70
2024/04/25 13:33:39;;;;;;;2.57;1.80;;;10.40;35.10;;;;;;11143691;26;20753;-70
2024/04/25 13:38:46;;;;;;;2.23;2.07;;;10.60;35.00;;;;;;11161729;26;20371;-70
2024/04/25 13:43:53;;;;;;;2.20;2.00;;;10.70;34.80;;;;;;11151851;26;20292;-70
2024/04/25 13:48:58;;;;;;;2.97;2.73;;;10.80;34.90;;;;;;11159370;26;20250;-70
2024/04/25 13:54:06;;;;;;;2.70;2.50;;;10.90;35.10;;;;;;11158513;26;20266;-71
2024/04/25 13:59:14;;;;;;;2.90;2.43;;;10.90;35.10;;;;;;11159717;26;21043;-69
2024/04/25 14:04:19;;;;;;;2.83;2.30;;;11.00;34.80;;;;;;11155205;26;20291;-70
2024/04/25 14:09:24;;;;;;;3.20;2.50;;;11.10;35.20;;;;;;11154116;26;20280;-70
2024/04/25 14:14:31;;;;;;;2.30;2.10;;;11.20;35.40;;;;;;11153060;26;20308;-70
2024/04/25 14:19:36;;;;;;;2.20;2.00;;;11.30;35.40;;;;;;11145379;26;20278;-70
2024/04/25 14:24:45;;;;;;;1.53;1.43;;;11.60;34.80;;;;;;11166903;26;21208;-70
2024/04/25 14:29:53;;;;;;;1.80;1.70;;;11.70;33.90;;;;;;11168870;26;20865;-70
2024/04/25 14:34:59;;;;;;;1.47;1.37;;;11.90;33.80;;;;;;11158387;26;20293;-70
2024/04/25 14:40:04;;;;;;;1.70;1.60;;;12.10;34.00;;;;;;11154356;26;20263;-70
2024/04/25 14:45:12;;;;;;;1.60;1.50;;;12.20;33.20;;;;;;11157292;26;22004;-70
2024/04/25 14:50:17;;;;;;;1.90;1.80;;;12.30;31.90;;;;;;11156335;26;20256;-70
2024/04/25 14:55:22;;;;;;;2.60;2.40;;;12.30;33.00;;;;;;11148955;26;20259;-70
2024/04/25 15:00:32;;;;;;;2.00;1.90;;;12.30;33.30;;;;;;11151501;26;20310;-70
2024/04/25 15:05:37;;;;;;;2.37;2.10;;;12.30;32.40;;;;;;11153030;26;20989;-70
2024/04/25 15:10:44;;;;;;;3.53;2.07;;;12.30;32.50;;;;;;11160413;26;20256;-69
2024/04/25 15:15:57;;;;;;;3.23;2.93;;;12.30;32.10;;;;;;11150355;26;20293;-70
2024/04/25 15:21:04;;;;;;;2.60;2.27;;;12.20;32.10;;;;;;11142355;26;20309;-70
2024/04/25 15:26:08;;;;;;;2.47;2.27;;;12.20;32.90;;;;;;11143585;26;20352;-70
2024/04/25 15:31:19;;;;;;;2.17;2.00;;;12.10;33.10;;;;;;11150271;26;20255;-70
2024/04/25 15:36:25;;;;;;;4.70;4.30;;;12.10;33.10;;;;;;11150631;26;20258;-70
2024/04/25 15:41:30;;;;;;;2.23;2.03;;;12.10;33.20;;;;;;11149816;26;20896;-70
2024/04/25 15:46:38;;;;;;;3.97;2.60;;;12.10;33.40;;;;;;11148660;26;20865;-70
2024/04/25 15:51:44;;;;;;;2.60;2.40;;;12.10;32.40;;;;;;11146739;26;20286;-70
2024/04/25 15:56:50;;;;;;;2.43;1.90;;;12.20;33.20;;;;;;11144919;26;20293;-70
2024/04/25 16:01:57;;;;;;;2.57;2.37;;;12.30;33.20;;;;;;11146312;26;20263;-70
2024/04/25 16:07:03;;;;;;;2.40;2.20;;;12.40;32.40;;;;;;11143420;26;20311;-70
2024/04/25 16:12:08;;;;;;;2.10;2.00;;;12.50;33.00;;;;;;11112432;26;21099;-70
2024/04/25 16:17:16;;;;;;;2.17;1.97;;;12.50;32.60;;;;;;11148613;26;20753;-70
2024/04/25 16:22:22;;;;;;;2.50;2.30;;;12.50;32.50;;;;;;11147374;26;20321;-70
2024/04/25 16:27:27;;;;;;;2.43;2.20;;;12.50;32.70;;;;;;11143737;26;20290;-70
2024/04/25 16:32:35;;;;;;;2.03;1.83;;;12.50;32.20;;;;;;11143178;26;20378;-70
2024/04/25 16:37:40;;;;;;;2.47;2.10;;;12.40;31.40;;;;;;11146749;26;20267;-70
2024/04/25 16:42:46;;;;;;;2.40;2.20;;;12.40;32.20;;;;;;11153939;26;20259;-70
2024/04/25 16:47:54;;;;;;;1.80;1.70;;;12.40;32.00;;;;;;11151557;26;20280;-70
2024/04/25 16:52:59;;;;;;;2.17;1.77;;;12.40;31.50;;;;;;11155015;26;20308;-70
2024/04/25 16:58:10;;;;;;;3.80;1.90;;;12.30;31.80;;;;;;11138554;26;20304;-69
2024/04/25 17:03:20;;;;;;;1.93;1.60;;;12.30;31.80;;;;;;11136148;26;20706;-70
2024/04/25 17:08:25;;;;;;;3.23;2.93;;;12.20;31.50;;;;;;11136057;26;20256;-69
2024/04/25 17:13:30;;;;;;;2.20;2.07;;;12.30;31.90;;;;;;11147703;26;20259;-70
2024/04/25 17:18:38;;;;;;;3.70;3.40;;;12.30;32.00;;;;;;11140263;26;20259;-70
2024/04/25 17:23:44;;;;;;;6.20;5.60;;;12.30;31.50;;;;;;11141320;26;20302;-69
2024/04/25 17:28:51;;;;;;;4.80;4.40;;;12.30;32.00;;;;;;11126927;26;20293;-69
2024/04/25 17:33:59;;;;;;;4.30;3.93;;;12.30;32.00;;;;;;11133479;26;20259;-70
2024/04/25 17:39:04;;;;;;;7.00;6.30;;;12.30;31.60;;;;;;11122979;26;20266;-70
2024/04/25 17:44:09;;;;;;;7.33;6.13;;;12.30;32.00;;;;;;11136146;26;20255;-70
2024/04/25 17:49:17;;;;;;;6.70;6.10;;;12.30;31.90;;;;;;11132008;26;21187;-69
2024/04/25 17:54:23;;;;;;;6.63;5.93;;;12.30;31.70;;;;;;11127444;26;20294;-70
2024/04/25 17:59:28;;;;;;;5.20;4.70;;;12.30;31.90;;;;;;11117947;26;20318;-69
2024/04/25 18:04:36;;;;;;;4.50;3.80;;;12.40;32.20;;;;;;11121843;26;20258;-70
2024/04/25 18:09:42;;;;;;;3.47;3.17;;;12.40;32.30;;;;;;11124444;26;20293;-70
2024/04/25 18:14:48;;;;;;;3.50;3.20;;;12.40;32.50;;;;;;11106554;26;20676;-70
2024/04/25 18:19:58;;;;;;;5.97;3.33;;;12.50;32.70;;;;;;11120708;26;20263;-70
2024/04/25 18:25:03;;;;;;;5.10;4.60;;;12.50;32.50;;;;;;11133861;26;20361;-70
2024/04/25 18:30:10;;;;;;;4.70;4.27;;;12.40;32.30;;;;;;11133919;26;20350;-70
2024/04/25 18:35:19;;;;;;;5.50;5.00;;;12.40;32.40;;;;;;11131119;26;20256;-70
2024/04/25 18:40:24;;;;;;;3.73;3.33;;;12.40;32.50;;;;;;11136112;26;20278;-70
2024/04/25 18:45:29;;;;;;;6.10;5.50;;;12.30;32.30;;;;;;11116978;26;20255;-70
2024/04/25 18:50:37;;;;;;;6.43;5.47;;;12.30;32.40;;;;;;11128569;26;20317;-70
2024/04/25 18:55:42;;;;;;;4.20;3.80;;;12.20;32.30;;;;;;11148713;26;20263;-70
2024/04/25 19:00:47;;;;;;;5.53;5.03;;;12.10;32.60;;;;;;11153127;26;20302;-70
2024/04/25 19:05:55;;;;;;;4.60;4.20;;;12.00;32.60;;;;;;11153093;26;20765;-69
2024/04/25 19:11:00;;;;;;;7.20;6.50;;;12.00;32.70;;;;;;11158826;26;20283;-70
2024/04/25 19:16:05;;;;;;;9.17;7.77;;;11.90;32.70;;;;;;11140744;26;20319;-70
2024/04/25 19:21:12;;;;;;;6.40;5.80;;;11.90;32.90;;;;;;11140483;26;20248;-70
2024/04/25 19:26:18;;;;;;;6.57;5.63;;;11.90;32.90;;;;;;11136184;26;20792;-70
2024/04/25 19:31:23;;;;;;;4.70;4.30;;;11.80;32.70;;;;;;11148361;26;20269;-70
2024/04/25 19:36:31;;;;;;;5.13;3.90;;;11.80;32.60;;;;;;11138144;26;20297;-70
2024/04/25 19:41:36;;;;;;;4.53;3.50;;;11.70;32.60;;;;;;11139473;26;20309;-70
2024/04/25 19:46:41;;;;;;;8.27;7.47;;;11.60;32.50;;;;;;11133653;26;20271;-70
2024/04/25 19:51:48;;;;;;;10.30;9.30;;;11.50;32.50;;;;;;11129783;26;20731;-70
2024/04/25 19:56:57;;;;;;;6.93;6.20;;;11.40;32.60;;;;;;11140765;26;20305;-70
2024/04/25 20:02:02;;;;;;;6.67;5.60;;;11.40;32.60;;;;;;11137850;26;21010;-70
2024/04/25 20:07:09;;;;;;;7.57;6.77;;;11.30;32.60;;;;;;11135114;26;20258;-70
2024/04/25 20:12:14;;;;;;;5.13;4.73;;;11.20;32.60;;;;;;11140504;26;20988;-70
2024/04/25 20:21:01;;;;;;;5.00;4.47;;;11.20;32.70;;;;;;11140569;26;20288;-70
2024/04/25 20:22:47;;;;;;;4.40;4.10;;;11.10;32.70;;;;;;11133934;26;20262;-70
2024/04/25 20:27:53;;;;;;;4.93;4.53;;;11.00;32.70;;;;;;11121126;26;20305;-70
2024/04/25 20:32:58;;;;;;;4.60;4.20;;;11.00;32.70;;;;;;11138786;26;20890;-70
2024/04/25 20:38:06;;;;;;;4.00;3.70;;;10.80;32.50;;;;;;11148256;26;20416;-70
2024/04/25 20:43:11;;;;;;;4.50;4.10;;;10.80;32.50;;;;;;11156663;26;20870;-70
2024/04/25 20:48:16;;;;;;;4.20;3.80;;;10.60;32.40;;;;;;11160056;26;20262;-70
2024/04/25 20:53:24;;;;;;;4.50;3.90;;;10.40;32.70;;;;;;11154716;26;21155;-70
2024/04/25 20:58:29;;;;;;;4.27;3.87;;;10.30;33.00;;;;;;11154465;26;20381;-70
2024/04/25 21:03:34;;;;;;;4.27;3.87;;;10.30;33.00;;;;;;11156297;26;20308;-70
2024/04/25 21:08:42;;;;;;;3.70;3.40;;;10.20;32.80;;;;;;11154147;26;20250;-70
2024/04/25 21:13:49;;;;;;;4.07;3.60;;;10.00;33.00;;;;;;11161430;26;20880;-70
2024/04/25 21:18:55;;;;;;;4.47;4.07;;;10.00;33.20;;;;;;11153890;26;20309;-70
2024/04/25 21:24:02;;;;;;;4.40;4.00;;;9.90;34.10;;;;;;11152408;26;20259;-70
2024/04/25 21:29:07;;;;;;;5.07;4.17;;;9.90;34.00;;;;;;11151953;26;20313;-70
2024/04/25 21:34:12;;;;;;;4.10;3.80;;;9.80;34.50;;;;;;11140431;26;20742;-70
2024/04/25 21:39:20;;;;;;;5.43;4.93;;;9.80;34.00;;;;;;11157681;26;20684;-70
2024/04/25 21:44:25;;;;;;;5.03;4.60;;;9.80;34.10;;;;;;11160633;26;20258;-70
2024/04/25 21:49:30;;;;;;;5.23;4.73;;;9.70;34.00;;;;;;11157616;26;20400;-70
2024/04/25 21:54:39;;;;;;;5.93;5.23;;;9.70;34.10;;;;;;11166524;26;20302;-70
2024/04/25 21:59:44;;;;;;;4.93;4.43;;;9.60;34.20;;;;;;11151507;26;20605;-70
2024/04/25 22:04:49;;;;;;;4.47;4.07;;;9.50;34.00;;;;;;11157335;26;20360;-70
2024/04/25 22:09:56;;;;;;;4.13;3.73;;;9.40;34.00;;;;;;11152070;26;20310;-70
2024/04/25 22:15:02;;;;;;;3.93;3.50;;;9.30;34.20;;;;;;11101555;26;20630;-69
2024/04/25 22:20:08;;;;;;;3.57;3.27;;;9.10;34.00;;;;;;11131300;26;20298;-70
2024/04/25 22:25:16;;;;;;;3.53;3.00;;;9.00;34.20;;;;;;11140048;26;20267;-70
2024/04/25 22:30:21;;;;;;;3.70;3.37;;;8.90;34.60;;;;;;11150832;26;20629;-70
2024/04/25 22:35:26;;;;;;;3.00;2.80;;;8.90;34.80;;;;;;11166136;26;20360;-70
2024/04/25 22:40:34;;;;;;;3.50;3.20;;;8.80;34.80;;;;;;11153277;26;20263;-70
2024/04/25 22:45:39;;;;;;;3.53;3.20;;;8.80;35.10;;;;;;11152194;26;20251;-70
2024/04/25 22:50:45;;;;;;;4.10;3.10;;;8.80;34.80;;;;;;11145835;26;20309;-70
2024/04/25 22:55:53;;;;;;;3.53;3.23;;;8.80;34.80;;;;;;11148405;26;20301;-71
2024/04/25 23:00:58;;;;;;;4.07;3.57;;;8.70;35.20;;;;;;11143037;26;20260;-70
2024/04/25 23:06:03;;;;;;;3.77;3.47;;;8.60;35.10;;;;;;11154982;26;21073;-70
2024/04/25 23:11:11;;;;;;;3.93;3.53;;;8.50;35.10;;;;;;11156061;26;20254;-70
2024/04/25 23:16:16;;;;;;;4.40;4.00;;;8.40;35.50;;;;;;11157459;26;20263;-70
2024/04/25 23:21:22;;;;;;;3.73;3.43;;;8.40;35.50;;;;;;11169834;26;20261;-70
2024/04/25 23:26:29;;;;;;;4.20;3.80;;;8.30;35.40;;;;;;11148827;26;20285;-70
2024/04/25 23:31:34;;;;;;;3.93;3.10;;;8.20;35.80;;;;;;11157862;26;20642;-70
2024/04/25 23:36:40;;;;;;;3.27;3.03;;;8.20;35.80;;;;;;11144475;26;20316;-70
2024/04/25 23:41:47;;;;;;;3.73;3.40;;;8.10;35.80;;;;;;11154541;26;20264;-70
2024/04/25 23:46:52;;;;;;;2.80;2.60;;;8.00;36.20;;;;;;11149892;26;20341;-70
2024/04/25 23:51:57;;;;;;;3.40;3.10;;;8.00;35.90;;;;;;11158173;26;20679;-70
2024/04/25 23:57:05;;;;;;;3.80;3.10;;;8.00;36.10;;;;;;11152797;26;20255;-70
